Time,TemperatureF,DewpointF,PressureIn,WindDirection,WindDirectionDegrees,WindSpeedMPH,WindSpeedGustMPH,Humidity,HourlyPrecipIn,Conditions,Clouds,dailyrainin,SoftwareType,DateUTC
2013-04-18 00:00:00,42.3,35.6,30.15,North,5,0.0,11.0,77,0.00,,,0.00,Wunderground v.1.15,2013-04-18 07:00:00,
2013-04-18 00:06:00,42.0,35.0,30.15,ENE,62,1.0,11.0,76,0.00,,,0.00,Wunderground v.1.15,2013-04-18 07:06:00,
2013-04-18 00:11:00,41.7,34.7,30.15,NNE,33,1.0,11.0,76,0.00,,,0.00,Wunderground v.1.15,2013-04-18 07:11:00,
2013-04-18 00:17:00,41.5,34.2,30.15,North,355,1.0,11.0,75,0.00,,,0.00,Wunderground v.1.15,2013-04-18 07:17:00,
2013-04-18 00:23:00,41.4,34.1,30.16,North,9,2.0,11.0,75,0.00,,,0.00,Wunderground v.1.15,2013-04-18 07:23:00,
2013-04-18 00:28:00,41.4,34.4,30.16,ENE,59,1.0,11.0,76,0.00,,,0.00,Wunderground v.1.15,2013-04-18 07:28:00,
2013-04-18 00:34:00,41.4,34.1,30.16,ENE,58,1.0,11.0,75,0.00,,,0.00,Wunderground v.1.15,2013-04-18 07:34:00,
2013-04-18 00:39:00,41.4,34.1,30.16,North,360,1.0,11.0,75,0.00,,,0.00,Wunderground v.1.15,2013-04-18 07:39:00,
2013-04-18 00:45:00,41.4,33.7,30.16,NNE,32,1.0,11.0,74,0.00,,,0.00,Wunderground v.1.15,2013-04-18 07:45:00,
2013-04-18 00:51:00,41.1,33.8,30.16,NNE,15,0.0,11.0,75,0.00,,,0.00,Wunderground v.1.15,2013-04-18 07:51:00,
2013-04-18 00:56:00,40.8,33.5,30.16,North,360,1.0,11.0,75,0.00,,,0.00,Wunderground v.1.15,2013-04-18 07:56:00,
2013-04-18 01:02:00,40.5,33.2,30.16,North,360,1.0,11.0,75,0.00,,,0.00,Wunderground v.1.15,2013-04-18 08:02:00,
2013-04-18 01:08:00,40.2,33.2,30.16,North,360,1.0,11.0,76,0.00,,,0.00,Wunderground v.1.15,2013-04-18 08:08:00,
2013-04-18 01:13:00,40.0,33.0,30.16,North,360,0.0,11.0,76,0.00,,,0.00,Wunderground v.1.15,2013-04-18 08:13:00,
2013-04-18 01:19:00,39.8,32.8,30.16,ENE,73,1.0,11.0,76,0.00,,,0.00,Wunderground v.1.15,2013-04-18 08:19:00,
2013-04-18 01:24:00,39.6,32.7,30.16,ENE,57,1.0,11.0,76,0.00,,,0.00,Wunderground v.1.15,2013-04-18 08:24:00,
2013-04-18 01:30:00,39.4,32.8,30.16,NE,35,0.0,11.0,77,0.00,,,0.00,Wunderground v.1.15,2013-04-18 08:30:00,
2013-04-18 01:35:00,39.2,32.6,30.16,North,360,1.0,11.0,77,0.00,,,0.00,Wunderground v.1.15,2013-04-18 08:35:00,
2013-04-18 01:40:00,39.1,32.5,30.16,NNE,32,1.0,11.0,77,0.00,,,0.00,Wunderground v.1.15,2013-04-18 08:40:00,
2013-04-18 01:45:00,39.0,32.4,30.16,NE,41,1.0,11.0,77,0.00,,,0.00,Wunderground v.1.15,2013-04-18 08:45:00,
2013-04-18 01:51:00,39.0,32.1,30.16,ENE,67,1.0,11.0,76,0.00,,,0.00,Wunderground v.1.15,2013-04-18 08:51:00,
2013-04-18 01:57:00,39.2,31.6,30.16,East,101,0.0,11.0,74,0.00,,,0.00,Wunderground v.1.15,2013-04-18 08:57:00,
2013-04-18 02:02:00,39.4,31.8,30.16,East,101,0.0,11.0,74,0.00,,,0.00,Wunderground v.1.15,2013-04-18 09:02:00,
2013-04-18 02:08:00,39.5,31.9,30.16,East,101,0.0,11.0,74,0.00,,,0.00,Wunderground v.1.15,2013-04-18 09:08:00,
2013-04-18 02:13:00,39.4,31.8,30.16,East,96,0.0,11.0,74,0.00,,,0.00,Wunderground v.1.15,2013-04-18 09:13:00,
2013-04-18 02:18:00,39.1,31.8,30.16,NE,47,0.0,11.0,75,0.00,,,0.00,Wunderground v.1.15,2013-04-18 09:18:00,
2013-04-18 02:24:00,38.7,31.8,30.16,NE,39,0.0,11.0,76,0.00,,,0.00,Wunderground v.1.15,2013-04-18 09:24:00,
2013-04-18 02:30:00,38.4,31.8,30.17,NNW,342,0.0,11.0,77,0.00,,,0.00,Wunderground v.1.15,2013-04-18 09:30:00,
2013-04-18 02:35:00,38.2,31.3,30.16,NNW,340,0.0,11.0,76,0.00,,,0.00,Wunderground v.1.15,2013-04-18 09:35:00,
2013-04-18 02:40:00,38.0,31.1,30.17,NNW,340,0.0,11.0,76,0.00,,,0.00,Wunderground v.1.15,2013-04-18 09:40:00,
2013-04-18 02:46:00,38.0,30.8,30.16,NW,326,0.0,11.0,75,0.00,,,0.00,Wunderground v.1.15,2013-04-18 09:46:00,
2013-04-18 02:52:00,38.0,31.1,30.16,NNW,347,1.0,11.0,76,0.00,,,0.00,Wunderground v.1.15,2013-04-18 09:52:00,
2013-04-18 02:57:00,38.1,30.9,30.16,North,355,2.0,11.0,75,0.00,,,0.00,Wunderground v.1.15,2013-04-18 09:57:00,
2013-04-18 03:03:00,39.0,30.0,30.16,North,355,3.0,11.0,70,0.00,,,0.00,Wunderground v.1.15,2013-04-18 10:03:00,
2013-04-18 03:09:00,40.6,29.7,30.16,NNW,347,3.0,11.0,65,0.00,,,0.00,Wunderground v.1.15,2013-04-18 10:09:00,
2013-04-18 03:15:00,42.0,29.9,30.16,North,5,2.0,11.0,62,0.00,,,0.00,Wunderground v.1.15,2013-04-18 10:15:00,
2013-04-18 03:20:00,42.7,30.2,30.16,North,355,2.0,11.0,61,0.00,,,0.00,Wunderground v.1.15,2013-04-18 10:20:00,
2013-04-18 03:25:00,43.4,29.6,30.16,North,360,3.0,11.0,58,0.00,,,0.00,Wunderground v.1.15,2013-04-18 10:25:00,
2013-04-18 03:31:00,44.4,29.2,30.15,NNW,346,3.0,4.0,55,0.00,,,0.00,Wunderground v.1.15,2013-04-18 10:31:00,
2013-04-18 03:36:00,45.1,29.0,30.15,North,351,3.0,11.0,53,0.00,,,0.00,Wunderground v.1.15,2013-04-18 10:36:00,
2013-04-18 03:42:00,45.3,28.7,30.15,NE,34,2.0,11.0,52,0.00,,,0.00,Wunderground v.1.15,2013-04-18 10:42:00,
2013-04-18 03:48:00,45.7,28.6,30.15,North,349,2.0,11.0,51,0.00,,,0.00,Wunderground v.1.15,2013-04-18 10:48:00,
2013-04-18 03:54:00,45.7,29.1,30.15,NNW,347,3.0,11.0,52,0.00,,,0.00,Wunderground v.1.15,2013-04-18 10:54:00,
2013-04-18 03:59:00,45.6,28.5,30.15,NNW,346,3.0,11.0,51,0.00,,,0.00,Wunderground v.1.15,2013-04-18 10:59:00,
2013-04-18 04:05:00,45.5,28.9,30.15,North,360,2.0,11.0,52,0.00,,,0.00,Wunderground v.1.15,2013-04-18 11:05:00,
2013-04-18 04:10:00,45.3,29.2,30.15,NNW,346,2.0,2.0,53,0.00,,,0.00,Wunderground v.1.15,2013-04-18 11:10:00,
2013-04-18 04:15:00,45.1,28.5,30.15,NNW,343,2.0,11.0,52,0.00,,,0.00,Wunderground v.1.15,2013-04-18 11:15:00,
2013-04-18 04:21:00,44.9,28.8,30.15,NNW,339,1.0,11.0,53,0.00,,,0.00,Wunderground v.1.15,2013-04-18 11:21:00,
2013-04-18 04:26:00,44.5,29.3,30.15,NNW,338,1.0,11.0,55,0.00,,,0.00,Wunderground v.1.15,2013-04-18 11:26:00,
2013-04-18 04:32:00,44.1,28.9,30.15,NNW,344,1.0,11.0,55,0.00,,,0.00,Wunderground v.1.15,2013-04-18 11:32:00,
2013-04-18 04:38:00,43.7,29.5,30.15,NNW,344,0.0,11.0,57,0.00,,,0.00,Wunderground v.1.15,2013-04-18 11:38:00,
2013-04-18 04:43:00,43.2,29.4,30.15,NNW,333,0.0,11.0,58,0.00,,,0.00,Wunderground v.1.15,2013-04-18 11:43:00,
2013-04-18 04:48:00,42.9,28.7,30.15,NE,43,0.0,11.0,57,0.00,,,0.00,Wunderground v.1.15,2013-04-18 11:48:00,
2013-04-18 04:53:00,42.9,27.4,30.15,ENE,74,1.0,11.0,54,0.00,,,0.00,Wunderground v.1.15,2013-04-18 11:53:00,
2013-04-18 04:59:00,43.9,26.0,30.15,ENE,70,1.0,11.0,49,0.00,,,0.00,Wunderground v.1.15,2013-04-18 11:59:00,
2013-04-18 05:04:00,45.9,25.2,30.15,ENE,63,2.0,11.0,44,0.00,,,0.00,Wunderground v.1.15,2013-04-18 12:04:00,
2013-04-18 05:10:00,47.2,25.3,30.15,East,86,2.0,11.0,42,0.00,,,0.00,Wunderground v.1.15,2013-04-18 12:10:00,
2013-04-18 05:16:00,49.5,24.3,30.16,NE,49,3.0,11.0,37,0.00,,,0.00,Wunderground v.1.15,2013-04-18 12:16:00,
2013-04-18 05:21:00,50.2,24.2,30.16,East,92,3.0,11.0,36,0.00,,,0.00,Wunderground v.1.15,2013-04-18 12:21:00,
2013-04-18 05:26:00,51.2,23.0,30.16,East,96,3.0,11.0,33,0.00,,,0.00,Wunderground v.1.15,2013-04-18 12:26:00,
2013-04-18 05:32:00,52.7,18.7,30.16,NE,42,4.0,11.0,26,0.00,,,0.00,Wunderground v.1.15,2013-04-18 12:32:00,
2013-04-18 05:37:00,55.4,18.2,30.16,ENE,74,6.0,11.0,23,0.00,,,0.00,Wunderground v.1.15,2013-04-18 12:37:00,
2013-04-18 05:42:00,57.2,17.6,30.16,ENE,70,7.0,11.0,21,0.00,,,0.00,Wunderground v.1.15,2013-04-18 12:42:00,
2013-04-18 05:47:00,58.8,16.6,30.17,ENE,73,7.0,11.0,19,0.00,,,0.00,Wunderground v.1.15,2013-04-18 12:47:00,
2013-04-18 05:52:00,60.1,16.4,30.17,East,93,8.0,15.0,18,0.00,,,0.00,Wunderground v.1.15,2013-04-18 12:52:00,
2013-04-18 05:58:00,59.5,18.3,30.17,ESE,113,7.0,15.0,20,0.00,,,0.00,Wunderground v.1.15,2013-04-18 12:58:00,
2013-04-18 06:03:00,58.5,17.5,30.18,ENE,69,5.0,11.0,20,0.00,,,0.00,Wunderground v.1.15,2013-04-18 13:03:00,
2013-04-18 06:09:00,57.2,21.6,30.18,ENE,71,5.0,11.0,25,0.00,,,0.00,Wunderground v.1.15,2013-04-18 13:09:00,
2013-04-18 06:13:00,55.7,21.3,30.18,ENE,71,5.0,11.0,26,0.00,,,0.00,Wunderground v.1.15,2013-04-18 13:13:00,
2013-04-18 06:19:00,55.0,19.8,30.18,NE,41,5.0,11.0,25,0.00,,,0.00,Wunderground v.1.15,2013-04-18 13:19:00,
2013-04-18 06:25:00,54.8,20.5,30.18,NE,51,5.0,11.0,26,0.00,,,0.00,Wunderground v.1.15,2013-04-18 13:25:00,
2013-04-18 06:30:00,54.6,20.4,30.19,ENE,75,5.0,5.0,26,0.00,,,0.00,Wunderground v.1.15,2013-04-18 13:30:00,
2013-04-18 06:36:00,54.6,19.4,30.19,East,82,5.0,11.0,25,0.00,,,0.00,Wunderground v.1.15,2013-04-18 13:36:00,
2013-04-18 06:41:00,54.7,20.4,30.19,NE,41,6.0,11.0,26,0.00,,,0.00,Wunderground v.1.15,2013-04-18 13:41:00,
2013-04-18 06:47:00,54.8,19.6,30.19,ENE,57,6.0,11.0,25,0.00,,,0.00,Wunderground v.1.15,2013-04-18 13:47:00,
2013-04-18 06:52:00,55.6,16.2,30.20,ENE,76,6.0,11.0,21,0.00,,,0.00,Wunderground v.1.15,2013-04-18 13:52:00,
2013-04-18 06:57:00,56.8,18.3,30.20,ENE,76,6.0,11.0,22,0.00,,,0.00,Wunderground v.1.15,2013-04-18 13:57:00,
2013-04-18 07:02:00,57.6,16.8,30.20,NE,34,6.0,11.0,20,0.00,,,0.00,Wunderground v.1.15,2013-04-18 14:02:00,
2013-04-18 07:08:00,58.9,16.7,30.20,NE,35,7.0,12.0,19,0.00,,,0.00,Wunderground v.1.15,2013-04-18 14:08:00,
2013-04-18 07:14:00,60.1,16.4,30.21,ENE,68,9.0,12.0,18,0.00,,,0.00,Wunderground v.1.15,2013-04-18 14:14:00,
2013-04-18 07:20:00,60.8,17.0,30.21,ENE,67,7.0,11.0,18,0.00,,,0.00,Wunderground v.1.15,2013-04-18 14:20:00,
2013-04-18 07:26:00,60.9,17.0,30.21,NE,51,5.0,11.0,18,0.00,,,0.00,Wunderground v.1.15,2013-04-18 14:26:00,
2013-04-18 07:32:00,61.5,18.8,30.21,NE,34,6.0,11.0,19,0.00,,,0.00,Wunderground v.1.15,2013-04-18 14:32:00,
2013-04-18 07:38:00,61.9,19.1,30.21,SE,129,6.0,12.0,19,0.00,,,0.00,Wunderground v.1.15,2013-04-18 14:38:00,
2013-04-18 07:43:00,62.1,19.3,30.21,NE,55,6.0,11.0,19,0.00,,,0.00,Wunderground v.1.15,2013-04-18 14:43:00,
2013-04-18 07:49:00,62.1,18.0,30.21,East,95,6.0,16.0,18,0.00,,,0.00,Wunderground v.1.15,2013-04-18 14:49:00,
2013-04-18 07:54:00,62.4,18.3,30.21,ENE,66,6.0,11.0,18,0.00,,,0.00,Wunderground v.1.15,2013-04-18 14:54:00,
2013-04-18 07:59:00,62.8,18.6,30.21,East,84,6.0,11.0,18,0.00,,,0.00,Wunderground v.1.15,2013-04-18 14:59:00,
2013-04-18 08:05:00,63.3,19.0,30.21,ENE,77,7.0,11.0,18,0.00,,,0.00,Wunderground v.1.15,2013-04-18 15:05:00,
2013-04-18 08:10:00,63.4,19.1,30.21,NE,45,7.0,7.0,18,0.00,,,0.00,Wunderground v.1.15,2013-04-18 15:10:00,
2013-04-18 08:16:00,63.8,18.1,30.21,NNE,32,7.0,11.0,17,0.00,,,0.00,Wunderground v.1.15,2013-04-18 15:16:00,
2013-04-18 08:21:00,64.3,18.5,30.21,NE,44,8.0,11.0,17,0.00,,,0.00,Wunderground v.1.15,2013-04-18 15:21:00,
2013-04-18 08:26:00,64.8,18.9,30.21,ESE,104,8.0,16.0,17,0.00,,,0.00,Wunderground v.1.15,2013-04-18 15:26:00,
2013-04-18 08:32:00,65.2,16.3,30.21,NE,42,8.0,12.0,15,0.00,,,0.00,Wunderground v.1.15,2013-04-18 15:32:00,
2013-04-18 08:37:00,65.6,18.1,30.21,North,350,9.0,12.0,16,0.00,,,0.00,Wunderground v.1.15,2013-04-18 15:37:00,
2013-04-18 08:43:00,66.0,17.0,30.21,East,80,9.0,13.0,15,0.00,,,0.00,Wunderground v.1.15,2013-04-18 15:43:00,
2013-04-18 08:49:00,66.3,17.2,30.21,NE,55,9.0,13.0,15,0.00,,,0.00,Wunderground v.1.15,2013-04-18 15:49:00,
2013-04-18 08:54:00,66.5,15.8,30.21,East,88,10.0,11.0,14,0.00,,,0.00,Wunderground v.1.15,2013-04-18 15:54:00,
2013-04-18 09:00:00,66.7,17.5,30.21,NE,53,10.0,10.0,15,0.00,,,0.00,Wunderground v.1.15,2013-04-18 16:00:00,
2013-04-18 09:06:00,66.8,17.6,30.21,ENE,68,10.0,14.0,15,0.00,,,0.00,Wunderground v.1.15,2013-04-18 16:06:00,
2013-04-18 09:12:00,67.1,17.8,30.21,ESE,107,9.0,13.0,15,0.00,,,0.00,Wunderground v.1.15,2013-04-18 16:12:00,
2013-04-18 09:17:00,67.2,17.9,30.20,East,84,9.0,13.0,15,0.00,,,0.00,Wunderground v.1.15,2013-04-18 16:17:00,
2013-04-18 09:23:00,67.7,16.7,30.21,NNE,16,9.0,18.0,14,0.00,,,0.00,Wunderground v.1.15,2013-04-18 16:23:00,
2013-04-18 09:29:00,68.0,17.0,30.21,ENE,64,10.0,18.0,14,0.00,,,0.00,Wunderground v.1.15,2013-04-18 16:29:00,
2013-04-18 09:34:00,68.4,17.3,30.21,ENE,57,10.0,13.0,14,0.00,,,0.00,Wunderground v.1.15,2013-04-18 16:34:00,
2013-04-18 09:40:00,68.9,17.7,30.21,ENE,64,8.0,11.0,14,0.00,,,0.00,Wunderground v.1.15,2013-04-18 16:40:00,
2013-04-18 09:46:00,69.1,16.1,30.21,NE,55,9.0,21.0,13,0.00,,,0.00,Wunderground v.1.15,2013-04-18 16:46:00,
2013-04-18 09:51:00,69.3,16.3,30.21,NNE,30,10.0,17.0,13,0.00,,,0.00,Wunderground v.1.15,2013-04-18 16:51:00,
2013-04-18 09:57:00,69.6,16.5,30.21,ENE,62,9.0,17.0,13,0.00,,,0.00,Wunderground v.1.15,2013-04-18 16:57:00,
2013-04-18 10:02:00,70.0,16.8,30.20,NE,35,9.0,11.0,13,0.00,,,0.00,Wunderground v.1.15,2013-04-18 17:02:00,
2013-04-18 10:08:00,70.2,17.0,30.20,NE,39,11.0,13.0,13,0.00,,,0.00,Wunderground v.1.15,2013-04-18 17:08:00,
2013-04-18 10:13:00,70.4,15.3,30.21,NE,51,11.0,11.0,12,0.00,,,0.00,Wunderground v.1.15,2013-04-18 17:13:00,
2013-04-18 10:19:00,70.5,15.4,30.21,North,11,11.0,14.0,12,0.00,,,0.00,Wunderground v.1.15,2013-04-18 17:19:00,
2013-04-18 10:25:00,70.5,17.2,30.21,NNW,329,10.0,14.0,13,0.00,,,0.00,Wunderground v.1.15,2013-04-18 17:25:00,
2013-04-18 10:31:00,70.7,17.4,30.21,NE,44,11.0,15.0,13,0.00,,,0.00,Wunderground v.1.15,2013-04-18 17:31:00,
2013-04-18 10:36:00,71.0,17.6,30.21,NE,51,11.0,15.0,13,0.00,,,0.00,Wunderground v.1.15,2013-04-18 17:36:00,
2013-04-18 10:42:00,71.3,16.0,30.21,NNE,22,10.0,11.0,12,0.00,,,0.00,Wunderground v.1.15,2013-04-18 17:42:00,
2013-04-18 10:48:00,71.4,17.9,30.21,ENE,64,10.0,15.0,13,0.00,,,0.00,Wunderground v.1.15,2013-04-18 17:48:00,
2013-04-18 10:54:00,71.7,18.2,30.21,ENE,76,11.0,24.0,13,0.00,,,0.00,Wunderground v.1.15,2013-04-18 17:54:00,
2013-04-18 10:59:00,71.6,16.2,30.21,ENE,71,11.0,11.0,12,0.00,,,0.00,Wunderground v.1.15,2013-04-18 17:59:00,
2013-04-18 11:05:00,71.7,16.3,30.21,ENE,76,10.0,18.0,12,0.00,,,0.00,Wunderground v.1.15,2013-04-18 18:05:00,
2013-04-18 11:10:00,72.0,16.6,30.21,ENE,65,10.0,12.0,12,0.00,,,0.00,Wunderground v.1.15,2013-04-18 18:10:00,
2013-04-18 11:16:00,72.1,18.5,30.21,North,5,10.0,13.0,13,0.00,,,0.00,Wunderground v.1.15,2013-04-18 18:16:00,
2013-04-18 11:22:00,72.2,18.6,30.20,ENE,69,9.0,12.0,13,0.00,,,0.00,Wunderground v.1.15,2013-04-18 18:22:00,
2013-04-18 11:27:00,72.5,16.9,30.20,ENE,63,9.0,12.0,12,0.00,,,0.00,Wunderground v.1.15,2013-04-18 18:27:00,
2013-04-18 11:32:00,73.0,19.2,30.20,NE,52,9.0,11.0,13,0.00,,,0.00,Wunderground v.1.15,2013-04-18 18:32:00,
2013-04-18 11:38:00,73.2,17.5,30.20,NE,36,8.0,11.0,12,0.00,,,0.00,Wunderground v.1.15,2013-04-18 18:38:00,
2013-04-18 11:44:00,73.5,17.7,30.20,NNE,22,8.0,11.0,12,0.00,,,0.00,Wunderground v.1.15,2013-04-18 18:44:00,
2013-04-18 11:49:00,73.6,17.8,30.19,ENE,65,8.0,11.0,12,0.00,,,0.00,Wunderground v.1.15,2013-04-18 18:49:00,
2013-04-18 11:54:00,73.8,18.0,30.19,East,91,8.0,11.0,12,0.00,,,0.00,Wunderground v.1.15,2013-04-18 18:54:00,
2013-04-18 11:59:00,74.3,16.3,30.19,NE,34,9.0,12.0,11,0.00,,,0.00,Wunderground v.1.15,2013-04-18 18:59:00,
2013-04-18 12:05:00,74.0,13.9,30.18,NE,47,9.0,16.0,10,0.00,,,0.00,Wunderground v.1.15,2013-04-18 19:05:00,
2013-04-18 12:10:00,74.0,18.1,30.18,NNE,24,10.0,10.0,12,0.00,,,0.00,Wunderground v.1.15,2013-04-18 19:10:00,
2013-04-18 12:15:00,74.2,20.1,30.18,NE,51,9.0,18.0,13,0.00,,,0.00,Wunderground v.1.15,2013-04-18 19:15:00,
2013-04-18 12:21:00,74.7,18.7,30.18,ENE,66,8.0,11.0,12,0.00,,,0.00,Wunderground v.1.15,2013-04-18 19:21:00,
2013-04-18 12:27:00,75.1,17.0,30.18,ENE,60,7.0,11.0,11,0.00,,,0.00,Wunderground v.1.15,2013-04-18 19:27:00,
2013-04-18 12:33:00,74.9,16.8,30.18,East,81,7.0,11.0,11,0.00,,,0.00,Wunderground v.1.15,2013-04-18 19:33:00,
2013-04-18 12:38:00,74.7,18.7,30.18,East,92,7.0,11.0,12,0.00,,,0.00,Wunderground v.1.15,2013-04-18 19:38:00,
2013-04-18 12:44:00,75.0,18.9,30.17,ENE,67,7.0,11.0,12,0.00,,,0.00,Wunderground v.1.15,2013-04-18 19:44:00,
2013-04-18 12:49:00,75.0,16.9,30.17,East,92,7.0,15.0,11,0.00,,,0.00,Wunderground v.1.15,2013-04-18 19:49:00,
2013-04-18 12:55:00,75.1,19.0,30.17,ESE,104,8.0,12.0,12,0.00,,,0.00,Wunderground v.1.15,2013-04-18 19:55:00,
2013-04-18 13:01:00,75.3,17.1,30.17,East,81,7.0,11.0,11,0.00,,,0.00,Wunderground v.1.15,2013-04-18 20:01:00,
2013-04-18 13:06:00,75.7,19.4,30.17,East,93,5.0,11.0,12,0.00,,,0.00,Wunderground v.1.15,2013-04-18 20:06:00,
2013-04-18 13:11:00,75.8,15.3,30.17,East,99,6.0,11.0,10,0.00,,,0.00,Wunderground v.1.15,2013-04-18 20:11:00,
2013-04-18 13:17:00,75.4,15.0,30.17,SE,137,8.0,13.0,10,0.00,,,0.00,Wunderground v.1.15,2013-04-18 20:17:00,
2013-04-18 13:22:00,75.7,21.3,30.17,East,80,7.0,11.0,13,0.00,,,0.00,Wunderground v.1.15,2013-04-18 20:22:00,
2013-04-18 13:28:00,75.9,17.6,30.17,NE,40,5.0,11.0,11,0.00,,,0.00,Wunderground v.1.15,2013-04-18 20:28:00,
2013-04-18 13:34:00,76.1,17.7,30.17,SE,128,5.0,11.0,11,0.00,,,0.00,Wunderground v.1.15,2013-04-18 20:34:00,
2013-04-18 13:39:00,76.3,13.3,30.16,SE,144,4.0,11.0,9,0.00,,,0.00,Wunderground v.1.15,2013-04-18 20:39:00,
2013-04-18 13:45:00,77.0,18.4,30.16,ENE,57,3.0,11.0,11,0.00,,,0.00,Wunderground v.1.15,2013-04-18 20:45:00,
2013-04-18 13:51:00,77.6,18.9,30.17,East,83,5.0,6.0,11,0.00,,,0.00,Wunderground v.1.15,2013-04-18 20:51:00,
2013-04-18 13:57:00,77.6,14.2,30.16,NE,48,4.0,11.0,9,0.00,,,0.00,Wunderground v.1.15,2013-04-18 20:57:00,
2013-04-18 14:03:00,77.6,16.7,30.16,ENE,64,3.0,11.0,10,0.00,,,0.00,Wunderground v.1.15,2013-04-18 21:03:00,
2013-04-18 14:08:00,77.9,14.5,30.16,NE,47,3.0,11.0,9,0.00,,,0.00,Wunderground v.1.15,2013-04-18 21:08:00,
2013-04-18 14:13:00,77.7,14.3,30.16,SSW,204,2.0,11.0,9,0.00,,,0.00,Wunderground v.1.15,2013-04-18 21:13:00,
2013-04-18 14:19:00,78.1,25.0,30.16,SSE,150,1.0,11.0,14,0.00,,,0.00,Wunderground v.1.15,2013-04-18 21:19:00,
2013-04-18 14:25:00,77.9,19.1,30.15,SSE,165,3.0,11.0,11,0.00,,,0.00,Wunderground v.1.15,2013-04-18 21:25:00,
2013-04-18 14:30:00,77.5,16.6,30.15,SW,215,5.0,5.0,10,0.00,,,0.00,Wunderground v.1.15,2013-04-18 21:30:00,
2013-04-18 14:35:00,77.0,18.4,30.15,SSW,213,4.0,11.0,11,0.00,,,0.00,Wunderground v.1.15,2013-04-18 21:35:00,
2013-04-18 14:41:00,77.2,16.4,30.15,SSW,192,4.0,4.0,10,0.00,,,0.00,Wunderground v.1.15,2013-04-18 21:41:00,
2013-04-18 14:47:00,77.2,16.4,30.14,SE,146,3.0,11.0,10,0.00,,,0.00,Wunderground v.1.15,2013-04-18 21:47:00,
2013-04-18 14:53:00,77.3,16.4,30.14,South,183,2.0,11.0,10,0.00,,,0.00,Wunderground v.1.15,2013-04-18 21:53:00,
2013-04-18 14:58:00,77.5,18.8,30.14,SW,232,2.0,11.0,11,0.00,,,0.00,Wunderground v.1.15,2013-04-18 21:58:00,
2013-04-18 15:03:00,78.1,23.2,30.14,SW,221,2.0,11.0,13,0.00,,,0.00,Wunderground v.1.15,2013-04-18 22:03:00,
2013-04-18 15:09:00,78.1,23.2,30.14,SW,215,3.0,11.0,13,0.00,,,0.00,Wunderground v.1.15,2013-04-18 22:09:00,
2013-04-18 15:15:00,77.7,22.9,30.13,SSW,212,5.0,11.0,13,0.00,,,0.00,Wunderground v.1.15,2013-04-18 22:15:00,
2013-04-18 15:21:00,77.4,18.7,30.13,SW,236,5.0,11.0,11,0.00,,,0.00,Wunderground v.1.15,2013-04-18 22:21:00,
2013-04-18 15:26:00,77.7,21.0,30.13,SW,225,6.0,11.0,12,0.00,,,0.00,Wunderground v.1.15,2013-04-18 22:26:00,
2013-04-18 15:32:00,78.0,23.1,30.13,SSW,209,6.0,11.0,13,0.00,,,0.00,Wunderground v.1.15,2013-04-18 22:32:00,
2013-04-18 15:37:00,78.0,21.2,30.13,WSW,245,5.0,11.0,12,0.00,,,0.00,Wunderground v.1.15,2013-04-18 22:37:00,
2013-04-18 15:42:00,78.2,21.4,30.13,WNW,302,4.0,11.0,12,0.00,,,0.00,Wunderground v.1.15,2013-04-18 22:42:00,
2013-04-18 15:47:00,78.1,19.3,30.13,SW,215,5.0,11.0,11,0.00,,,0.00,Wunderground v.1.15,2013-04-18 22:47:00,
2013-04-18 15:53:00,77.7,24.7,30.13,West,263,6.0,11.0,14,0.00,,,0.00,Wunderground v.1.15,2013-04-18 22:53:00,
2013-04-18 15:59:00,77.6,20.9,30.13,WSW,243,6.0,11.0,12,0.00,,,0.00,Wunderground v.1.15,2013-04-18 22:59:00,
2013-04-18 16:04:00,77.2,20.6,30.13,WSW,254,7.0,14.0,12,0.00,,,0.00,Wunderground v.1.15,2013-04-18 23:04:00,
2013-04-18 16:10:00,76.8,18.3,30.12,WNW,292,7.0,7.0,11,0.00,,,0.00,Wunderground v.1.15,2013-04-18 23:10:00,
2013-04-18 16:15:00,76.6,20.1,30.12,WSW,250,6.0,11.0,12,0.00,,,0.00,Wunderground v.1.15,2013-04-18 23:15:00,
2013-04-18 16:20:00,76.5,20.1,30.12,WSW,257,7.0,11.0,12,0.00,,,0.00,Wunderground v.1.15,2013-04-18 23:20:00,
2013-04-18 16:26:00,76.5,20.1,30.12,WSW,242,8.0,11.0,12,0.00,,,0.00,Wunderground v.1.15,2013-04-18 23:26:00,
2013-04-18 16:31:00,76.3,19.9,30.12,WSW,255,7.0,11.0,12,0.00,,,0.00,Wunderground v.1.15,2013-04-18 23:31:00,
2013-04-18 16:37:00,75.9,19.6,30.12,WSW,257,7.0,11.0,12,0.00,,,0.00,Wunderground v.1.15,2013-04-18 23:37:00,
2013-04-18 16:42:00,76.0,21.6,30.12,SW,223,6.0,11.0,13,0.00,,,0.00,Wunderground v.1.15,2013-04-18 23:42:00,
2013-04-18 16:48:00,76.2,23.5,30.12,SSW,207,5.0,11.0,14,0.00,,,0.00,Wunderground v.1.15,2013-04-18 23:48:00,
2013-04-18 16:53:00,76.0,21.6,30.12,WSW,244,5.0,11.0,13,0.00,,,0.00,Wunderground v.1.15,2013-04-18 23:53:00,
2013-04-18 16:59:00,75.7,21.3,30.12,SW,229,6.0,11.0,13,0.00,,,0.00,Wunderground v.1.15,2013-04-18 23:59:00,
2013-04-18 17:04:00,75.3,19.1,30.12,WSW,237,7.0,11.0,12,0.00,,,0.00,Wunderground v.1.15,2013-04-19 00:04:00,
2013-04-18 17:10:00,75.3,19.1,30.11,SW,218,7.0,7.0,12,0.00,,,0.00,Wunderground v.1.15,2013-04-19 00:10:00,
2013-04-18 17:15:00,75.1,20.9,30.11,SSW,204,6.0,11.0,13,0.00,,,0.00,Wunderground v.1.15,2013-04-19 00:15:00,
2013-04-18 17:21:00,75.0,18.9,30.12,SW,231,6.0,11.0,12,0.00,,,0.00,Wunderground v.1.15,2013-04-19 00:21:00,
2013-04-18 17:26:00,74.7,18.7,30.12,West,261,7.0,11.0,12,0.00,,,0.00,Wunderground v.1.15,2013-04-19 00:26:00,
2013-04-18 17:32:00,74.5,20.4,30.12,SW,230,7.0,11.0,13,0.00,,,0.00,Wunderground v.1.15,2013-04-19 00:32:00,
2013-04-18 17:37:00,74.6,16.6,30.12,WSW,246,6.0,11.0,11,0.00,,,0.00,Wunderground v.1.15,2013-04-19 00:37:00,
2013-04-18 17:43:00,73.8,18.0,30.12,West,261,7.0,11.0,12,0.00,,,0.00,Wunderground v.1.15,2013-04-19 00:43:00,
2013-04-18 17:48:00,73.4,17.6,30.12,SSW,209,8.0,11.0,12,0.00,,,0.00,Wunderground v.1.15,2013-04-19 00:48:00,
2013-04-18 17:54:00,73.1,17.4,30.12,SW,230,7.0,11.0,12,0.00,,,0.00,Wunderground v.1.15,2013-04-19 00:54:00,
2013-04-18 18:00:00,73.0,17.3,30.12,SW,232,6.0,6.0,12,0.00,,,0.00,Wunderground v.1.15,2013-04-19 01:00:00,
2013-04-18 18:05:00,72.7,17.1,30.13,West,274,6.0,11.0,12,0.00,,,0.00,Wunderground v.1.15,2013-04-19 01:05:00,
2013-04-18 18:10:00,72.2,18.6,30.13,SW,216,7.0,11.0,13,0.00,,,0.00,Wunderground v.1.15,2013-04-19 01:10:00,
2013-04-18 18:16:00,71.8,18.3,30.13,SW,220,7.0,11.0,13,0.00,,,0.00,Wunderground v.1.15,2013-04-19 01:16:00,
2013-04-18 18:22:00,71.2,21.1,30.13,SW,225,6.0,11.0,15,0.00,,,0.00,Wunderground v.1.15,2013-04-19 01:22:00,
2013-04-18 18:27:00,70.6,19.0,30.13,SW,227,6.0,11.0,14,0.00,,,0.00,Wunderground v.1.15,2013-04-19 01:27:00,
2013-04-18 18:33:00,69.9,20.1,30.13,SSW,213,6.0,11.0,15,0.00,,,0.00,Wunderground v.1.15,2013-04-19 01:33:00,
2013-04-18 18:39:00,69.3,19.6,30.13,WSW,246,5.0,11.0,15,0.00,,,0.00,Wunderground v.1.15,2013-04-19 01:39:00,
2013-04-18 18:45:00,68.6,19.1,30.13,SW,229,4.0,11.0,15,0.00,,,0.00,Wunderground v.1.15,2013-04-19 01:45:00,
2013-04-18 18:50:00,68.2,18.7,30.13,SW,226,5.0,11.0,15,0.00,,,0.00,Wunderground v.1.15,2013-04-19 01:50:00,
2013-04-18 18:55:00,68.0,20.1,30.13,SW,225,5.0,11.0,16,0.00,,,0.00,Wunderground v.1.15,2013-04-19 01:55:00,
2013-04-18 19:01:00,67.5,18.2,30.14,SSW,203,4.0,11.0,15,0.00,,,0.00,Wunderground v.1.15,2013-04-19 02:01:00,
2013-04-18 19:06:00,67.1,17.8,30.14,West,259,5.0,11.0,15,0.00,,,0.00,Wunderground v.1.15,2013-04-19 02:06:00,
2013-04-18 19:12:00,66.7,19.0,30.14,SSW,204,5.0,11.0,16,0.00,,,0.00,Wunderground v.1.15,2013-04-19 02:12:00,
2013-04-18 19:18:00,66.4,18.8,30.14,SW,227,4.0,11.0,16,0.00,,,0.00,Wunderground v.1.15,2013-04-19 02:18:00,
2013-04-18 19:23:00,66.0,19.9,30.14,SW,217,4.0,11.0,17,0.00,,,0.00,Wunderground v.1.15,2013-04-19 02:23:00,
2013-04-18 19:29:00,65.5,20.8,30.14,WSW,258,3.0,11.0,18,0.00,,,0.00,Wunderground v.1.15,2013-04-19 02:29:00,
2013-04-18 19:35:00,65.1,20.5,30.14,WSW,246,3.0,11.0,18,0.00,,,0.00,Wunderground v.1.15,2013-04-19 02:35:00,
2013-04-18 19:40:00,64.7,21.4,30.14,WSW,238,4.0,11.0,19,0.00,,,0.00,Wunderground v.1.15,2013-04-19 02:40:00,
2013-04-18 19:46:00,64.3,22.3,30.14,WSW,248,3.0,11.0,20,0.00,,,0.00,Wunderground v.1.15,2013-04-19 02:46:00,
2013-04-18 19:52:00,63.9,23.2,30.14,WSW,250,3.0,11.0,21,0.00,,,0.00,Wunderground v.1.15,2013-04-19 02:52:00,
2013-04-18 19:57:00,63.5,23.9,30.14,SW,236,2.0,11.0,22,0.00,,,0.00,Wunderground v.1.15,2013-04-19 02:57:00,
2013-04-18 20:03:00,62.9,25.5,30.14,SW,233,3.0,11.0,24,0.00,,,0.00,Wunderground v.1.15,2013-04-19 03:03:00,
2013-04-18 20:09:00,62.1,29.4,30.15,SW,236,1.0,11.0,29,0.00,,,0.00,Wunderground v.1.15,2013-04-19 03:09:00,
2013-04-18 20:15:00,60.9,28.4,30.15,SW,236,1.0,11.0,29,0.00,,,0.00,Wunderground v.1.15,2013-04-19 03:15:00,
2013-04-18 20:20:00,59.8,29.9,30.15,WSW,242,0.0,11.0,32,0.00,,,0.00,Wunderground v.1.15,2013-04-19 03:20:00,
2013-04-18 20:25:00,58.7,28.9,30.15,WSW,242,0.0,11.0,32,0.00,,,0.00,Wunderground v.1.15,2013-04-19 03:25:00,
2013-04-18 20:31:00,57.7,30.2,30.15,WSW,242,0.0,11.0,35,0.00,,,0.00,Wunderground v.1.15,2013-04-19 03:31:00,
2013-04-18 20:37:00,56.4,30.4,30.15,NNW,331,1.0,11.0,37,0.00,,,0.00,Wunderground v.1.15,2013-04-19 03:37:00,
2013-04-18 20:43:00,55.3,30.7,30.16,North,355,2.0,11.0,39,0.00,,,0.00,Wunderground v.1.15,2013-04-19 03:43:00,
2013-04-18 20:48:00,54.7,31.4,30.16,North,355,1.0,11.0,41,0.00,,,0.00,Wunderground v.1.15,2013-04-19 03:48:00,
2013-04-18 20:53:00,54.1,30.3,30.16,NNE,26,0.0,11.0,40,0.00,,,0.00,Wunderground v.1.15,2013-04-19 03:53:00,
2013-04-18 20:59:00,54.0,29.6,30.16,NNE,26,1.0,11.0,39,0.00,,,0.00,Wunderground v.1.15,2013-04-19 03:59:00,
2013-04-18 21:01:00,53.9,30.1,30.17,NNE,26,1.0,11.0,40,0.00,,,0.00,Wunderground v.1.15,2013-04-19 04:01:00,
2013-04-18 21:02:00,53.9,30.1,30.17,NNE,26,1.0,11.0,40,0.00,,,0.00,Wunderground v.1.15,2013-04-19 04:02:00,
2013-04-18 21:05:00,53.8,30.0,30.17,NNE,22,0.0,11.0,40,0.00,,,0.00,Wunderground v.1.15,2013-04-19 04:05:00,
2013-04-18 21:09:00,53.5,29.7,30.17,NNE,32,1.0,11.0,40,0.00,,,0.00,Wunderground v.1.15,2013-04-19 04:09:00,
2013-04-18 21:10:00,53.4,29.7,30.17,NNE,30,1.0,1.0,40,0.00,,,0.00,Wunderground v.1.15,2013-04-19 04:10:00,
2013-04-18 21:16:00,53.0,29.9,30.17,NNE,17,1.0,11.0,41,0.00,,,0.00,Wunderground v.1.15,2013-04-19 04:16:00,
2013-04-18 21:21:00,52.5,31.2,30.17,NNE,28,0.0,11.0,44,0.00,,,0.00,Wunderground v.1.15,2013-04-19 04:21:00,
2013-04-18 21:27:00,52.3,31.6,30.17,NNE,24,0.0,11.0,45,0.00,,,0.00,Wunderground v.1.15,2013-04-19 04:27:00,
2013-04-18 21:32:00,51.9,31.7,30.17,NNE,25,0.0,11.0,46,0.00,,,0.00,Wunderground v.1.15,2013-04-19 04:32:00,
2013-04-18 21:38:00,51.3,32.3,30.17,NNW,346,0.0,11.0,48,0.00,,,0.00,Wunderground v.1.15,2013-04-19 04:38:00,
2013-04-18 21:43:00,50.7,32.2,30.17,NNW,333,1.0,11.0,49,0.00,,,0.00,Wunderground v.1.15,2013-04-19 04:43:00,
2013-04-18 21:49:00,50.4,30.4,30.17,NNW,333,0.0,11.0,46,0.00,,,0.00,Wunderground v.1.15,2013-04-19 04:49:00,
2013-04-18 21:55:00,50.0,31.6,30.17,NNW,333,0.0,11.0,49,0.00,,,0.00,Wunderground v.1.15,2013-04-19 04:55:00,
2013-04-18 22:00:00,49.8,30.9,30.17,NNW,333,0.0,11.0,48,0.00,,,0.00,Wunderground v.1.15,2013-04-19 05:00:00,
2013-04-18 22:06:00,49.4,31.0,30.17,NNW,333,0.0,11.0,49,0.00,,,0.00,Wunderground v.1.15,2013-04-19 05:06:00,
2013-04-18 22:11:00,48.9,31.5,30.17,NNW,333,0.0,11.0,51,0.00,,,0.00,Wunderground v.1.15,2013-04-19 05:11:00,
2013-04-18 22:16:00,48.4,32.5,30.17,NNW,333,0.0,11.0,54,0.00,,,0.00,Wunderground v.1.15,2013-04-19 05:16:00,
2013-04-18 22:21:00,47.9,33.4,30.17,NNW,333,0.0,11.0,57,0.00,,,0.00,Wunderground v.1.15,2013-04-19 05:21:00,
2013-04-18 22:26:00,47.5,33.4,30.17,NNW,333,0.0,11.0,58,0.00,,,0.00,Wunderground v.1.15,2013-04-19 05:26:00,
2013-04-18 22:31:00,47.0,33.4,30.17,NNW,333,0.0,11.0,59,0.00,,,0.00,Wunderground v.1.15,2013-04-19 05:31:00,
2013-04-18 22:37:00,46.7,33.5,30.17,NNW,333,0.0,11.0,60,0.00,,,0.00,Wunderground v.1.15,2013-04-19 05:37:00,
2013-04-18 22:43:00,46.3,34.0,30.17,NNW,333,0.0,11.0,62,0.00,,,0.00,Wunderground v.1.15,2013-04-19 05:43:00,
2013-04-18 22:48:00,45.9,33.6,30.17,NNW,329,0.0,11.0,62,0.00,,,0.00,Wunderground v.1.15,2013-04-19 05:48:00,
2013-04-18 22:53:00,45.7,33.4,30.17,NNW,329,0.0,11.0,62,0.00,,,0.00,Wunderground v.1.15,2013-04-19 05:53:00,
2013-04-18 22:58:00,45.4,32.7,30.17,NNW,329,0.0,11.0,61,0.00,,,0.00,Wunderground v.1.15,2013-04-19 05:58:00,
2013-04-18 23:04:00,45.2,32.9,30.17,NNW,329,0.0,11.0,62,0.00,,,0.00,Wunderground v.1.15,2013-04-19 06:04:00,
2013-04-18 23:10:00,44.8,33.0,30.17,North,355,1.0,11.0,63,0.00,,,0.00,Wunderground v.1.15,2013-04-19 06:10:00,
2013-04-18 23:15:00,44.6,32.8,30.17,NNE,18,1.0,11.0,63,0.00,,,0.00,Wunderground v.1.15,2013-04-19 06:15:00,
2013-04-18 23:20:00,44.3,32.5,30.17,North,11,0.0,11.0,63,0.00,,,0.00,Wunderground v.1.15,2013-04-19 06:20:00,
2013-04-18 23:26:00,44.1,32.7,30.17,NNW,328,0.0,11.0,64,0.00,,,0.00,Wunderground v.1.15,2013-04-19 06:26:00,
2013-04-18 23:31:00,43.9,32.9,30.17,North,355,0.0,11.0,65,0.00,,,0.00,Wunderground v.1.15,2013-04-19 06:31:00,
2013-04-18 23:37:00,43.7,31.9,30.17,North,5,0.0,11.0,63,0.00,,,0.00,Wunderground v.1.15,2013-04-19 06:37:00,
2013-04-18 23:42:00,43.6,32.2,30.17,North,5,0.0,11.0,64,0.00,,,0.00,Wunderground v.1.15,2013-04-19 06:42:00,
2013-04-18 23:47:00,43.5,32.5,30.17,NW,306,0.0,11.0,65,0.00,,,0.00,Wunderground v.1.15,2013-04-19 06:47:00,
2013-04-18 23:53:00,43.2,32.2,30.17,NW,305,0.0,11.0,65,0.00,,,0.00,Wunderground v.1.15,2013-04-19 06:53:00,
2013-04-18 23:58:00,42.8,32.2,30.17,NW,319,1.0,11.0,66,0.00,,,0.00,Wunderground v.1.15,2013-04-19 06:58:00,